sensor_id;sensor_type;location;lat;lon;timestamp;P1;durP1;ratioP1;P2;durP2;ratioP2
43560;SDS011;32305;46.410;17.394;2023-04-16T00:01:38;3.40;;;2.78;;
43560;SDS011;32305;46.410;17.394;2023-04-16T00:04:06;2.60;;;2.40;;
43560;SDS011;32305;46.410;17.394;2023-04-16T00:06:33;3.25;;;2.88;;
43560;SDS011;32305;46.410;17.394;2023-04-16T00:09:00;2.70;;;2.50;;
43560;SDS011;32305;46.410;17.394;2023-04-16T00:14:39;3.20;;;2.90;;
43560;SDS011;32305;46.410;17.394;2023-04-16T00:17:08;3.22;;;2.92;;
43560;SDS011;32305;46.410;17.394;2023-04-16T00:19:35;4.07;;;3.25;;
43560;SDS011;32305;46.410;17.394;2023-04-16T00:22:02;5.28;;;3.15;;
43560;SDS011;32305;46.410;17.394;2023-04-16T00:27:39;4.32;;;3.28;;
43560;SDS011;32305;46.410;17.394;2023-04-16T00:30:06;3.03;;;2.70;;
43560;SDS011;32305;46.410;17.394;2023-04-16T00:32:33;4.13;;;2.90;;
43560;SDS011;32305;46.410;17.394;2023-04-16T00:35:01;3.60;;;2.80;;
43560;SDS011;32305;46.410;17.394;2023-04-16T00:41:09;3.30;;;2.60;;
43560;SDS011;32305;46.410;17.394;2023-04-16T00:43:54;3.08;;;2.38;;
43560;SDS011;32305;46.410;17.394;2023-04-16T00:46:33;4.15;;;2.75;;
43560;SDS011;32305;46.410;17.394;2023-04-16T00:49:02;3.47;;;2.95;;
43560;SDS011;32305;46.410;17.394;2023-04-16T00:51:30;3.08;;;2.75;;
43560;SDS011;32305;46.410;17.394;2023-04-16T00:57:38;3.25;;;2.35;;
43560;SDS011;32305;46.410;17.394;2023-04-16T01:00:35;3.22;;;2.53;;
43560;SDS011;32305;46.410;17.394;2023-04-16T01:03:03;2.97;;;2.65;;
43560;SDS011;32305;46.410;17.394;2023-04-16T01:08:46;3.40;;;2.85;;
43560;SDS011;32305;46.410;17.394;2023-04-16T01:11:14;2.38;;;2.17;;
43560;SDS011;32305;46.410;17.394;2023-04-16T01:13:41;3.08;;;2.50;;
43560;SDS011;32305;46.410;17.394;2023-04-16T01:16:09;2.10;;;2.00;;
43560;SDS011;32305;46.410;17.394;2023-04-16T01:22:37;2.75;;;2.40;;
43560;SDS011;32305;46.410;17.394;2023-04-16T01:25:38;3.47;;;2.90;;
43560;SDS011;32305;46.410;17.394;2023-04-16T01:28:06;2.80;;;2.45;;
43560;SDS011;32305;46.410;17.394;2023-04-16T01:30:33;2.28;;;2.00;;
43560;SDS011;32305;46.410;17.394;2023-04-16T01:36:51;3.30;;;2.38;;
43560;SDS011;32305;46.410;17.394;2023-04-16T01:39:18;2.63;;;2.42;;
43560;SDS011;32305;46.410;17.394;2023-04-16T01:41:45;2.50;;;2.30;;
43560;SDS011;32305;46.410;17.394;2023-04-16T01:44:12;2.78;;;2.50;;
43560;SDS011;32305;46.410;17.394;2023-04-16T01:49:47;2.35;;;1.90;;
43560;SDS011;32305;46.410;17.394;2023-04-16T01:52:14;3.58;;;2.60;;
43560;SDS011;32305;46.410;17.394;2023-04-16T01:54:41;2.67;;;2.15;;
43560;SDS011;32305;46.410;17.394;2023-04-16T01:57:08;7.32;;;3.17;;
43560;SDS011;32305;46.410;17.394;2023-04-16T01:59:51;3.60;;;2.65;;
43560;SDS011;32305;46.410;17.394;2023-04-16T02:02:18;2.25;;;2.03;;
43560;SDS011;32305;46.410;17.394;2023-04-16T02:04:45;2.80;;;2.47;;
43560;SDS011;32305;46.410;17.394;2023-04-16T02:07:13;2.30;;;2.08;;
43560;SDS011;32305;46.410;17.394;2023-04-16T02:09:40;2.35;;;2.05;;
43560;SDS011;32305;46.410;17.394;2023-04-16T02:15:43;2.85;;;2.40;;
43560;SDS011;32305;46.410;17.394;2023-04-16T02:18:11;2.58;;;2.13;;
43560;SDS011;32305;46.410;17.394;2023-04-16T02:20:39;2.53;;;1.85;;
43560;SDS011;32305;46.410;17.394;2023-04-16T02:23:08;3.53;;;2.20;;
43560;SDS011;32305;46.410;17.394;2023-04-16T02:25:39;2.45;;;2.00;;
43560;SDS011;32305;46.410;17.394;2023-04-16T02:28:08;2.00;;;1.90;;
43560;SDS011;32305;46.410;17.394;2023-04-16T02:30:41;2.17;;;1.85;;
43560;SDS011;32305;46.410;17.394;2023-04-16T02:33:12;3.10;;;2.53;;
43560;SDS011;32305;46.410;17.394;2023-04-16T02:35:39;1.88;;;1.67;;
43560;SDS011;32305;46.410;17.394;2023-04-16T02:41:44;2.42;;;1.70;;
43560;SDS011;32305;46.410;17.394;2023-04-16T02:44:11;2.92;;;2.63;;
43560;SDS011;32305;46.410;17.394;2023-04-16T02:46:39;2.50;;;2.10;;
43560;SDS011;32305;46.410;17.394;2023-04-16T02:49:07;2.08;;;1.95;;
43560;SDS011;32305;46.410;17.394;2023-04-16T02:55:15;2.28;;;1.63;;
43560;SDS011;32305;46.410;17.394;2023-04-16T02:57:42;2.00;;;1.80;;
43560;SDS011;32305;46.410;17.394;2023-04-16T03:00:09;2.33;;;2.00;;
43560;SDS011;32305;46.410;17.394;2023-04-16T03:02:37;2.40;;;1.90;;
43560;SDS011;32305;46.410;17.394;2023-04-16T03:05:04;1.98;;;1.77;;
43560;SDS011;32305;46.410;17.394;2023-04-16T03:07:31;2.08;;;1.67;;
43560;SDS011;32305;46.410;17.394;2023-04-16T03:09:58;2.00;;;1.90;;
43560;SDS011;32305;46.410;17.394;2023-04-16T03:12:26;2.70;;;2.15;;
43560;SDS011;32305;46.410;17.394;2023-04-16T03:14:53;2.00;;;1.80;;
43560;SDS011;32305;46.410;17.394;2023-04-16T03:21:11;1.88;;;1.73;;
43560;SDS011;32305;46.410;17.394;2023-04-16T03:23:38;1.73;;;1.63;;
43560;SDS011;32305;46.410;17.394;2023-04-16T03:26:05;2.30;;;1.92;;
43560;SDS011;32305;46.410;17.394;2023-04-16T03:28:33;1.80;;;1.70;;
43560;SDS011;32305;46.410;17.394;2023-04-16T03:31:12;2.10;;;1.90;;
43560;SDS011;32305;46.410;17.394;2023-04-16T03:33:39;1.75;;;1.65;;
43560;SDS011;32305;46.410;17.394;2023-04-16T03:36:07;2.13;;;1.85;;
43560;SDS011;32305;46.410;17.394;2023-04-16T03:38:34;1.90;;;1.80;;
43560;SDS011;32305;46.410;17.394;2023-04-16T03:41:01;1.98;;;1.85;;
43560;SDS011;32305;46.410;17.394;2023-04-16T03:46:43;1.50;;;1.35;;
43560;SDS011;32305;46.410;17.394;2023-04-16T03:49:10;2.22;;;1.88;;
43560;SDS011;32305;46.410;17.394;2023-04-16T03:51:37;1.50;;;1.40;;
43560;SDS011;32305;46.410;17.394;2023-04-16T03:54:12;2.38;;;1.60;;
43560;SDS011;32305;46.410;17.394;2023-04-16T03:56:39;1.60;;;1.50;;
43560;SDS011;32305;46.410;17.394;2023-04-16T03:59:13;1.50;;;1.40;;
43560;SDS011;32305;46.410;17.394;2023-04-16T04:01:53;1.75;;;1.52;;
43560;SDS011;32305;46.410;17.394;2023-04-16T04:04:21;1.67;;;1.58;;
43560;SDS011;32305;46.410;17.394;2023-04-16T04:06:48;1.55;;;1.42;;
43560;SDS011;32305;46.410;17.394;2023-04-16T04:12:40;2.10;;;1.60;;
43560;SDS011;32305;46.410;17.394;2023-04-16T04:15:10;1.58;;;1.40;;
43560;SDS011;32305;46.410;17.394;2023-04-16T04:17:39;1.65;;;1.55;;
43560;SDS011;32305;46.410;17.394;2023-04-16T04:20:06;1.00;;;1.00;;
43560;SDS011;32305;46.410;17.394;2023-04-16T04:22:34;1.75;;;1.65;;
43560;SDS011;32305;46.410;17.394;2023-04-16T04:25:01;1.33;;;1.23;;
43560;SDS011;32305;46.410;17.394;2023-04-16T04:27:32;1.23;;;1.13;;
43560;SDS011;32305;46.410;17.394;2023-04-16T04:29:59;1.52;;;1.42;;
43560;SDS011;32305;46.410;17.394;2023-04-16T04:32:43;1.80;;;1.50;;
43560;SDS011;32305;46.410;17.394;2023-04-16T04:39:01;1.73;;;1.63;;
43560;SDS011;32305;46.410;17.394;2023-04-16T04:41:28;1.40;;;1.27;;
43560;SDS011;32305;46.410;17.394;2023-04-16T04:43:56;1.30;;;1.20;;
43560;SDS011;32305;46.410;17.394;2023-04-16T04:46:24;1.38;;;1.23;;
43560;SDS011;32305;46.410;17.394;2023-04-16T04:52:49;1.90;;;1.30;;
43560;SDS011;32305;46.410;17.394;2023-04-16T04:55:16;1.15;;;1.10;;
43560;SDS011;32305;46.410;17.394;2023-04-16T04:57:44;1.40;;;1.30;;
43560;SDS011;32305;46.410;17.394;2023-04-16T05:00:11;1.58;;;1.48;;
43560;SDS011;32305;46.410;17.394;2023-04-16T05:02:39;1.30;;;1.20;;
43560;SDS011;32305;46.410;17.394;2023-04-16T05:05:06;1.27;;;1.17;;
43560;SDS011;32305;46.410;17.394;2023-04-16T05:07:33;3.03;;;1.35;;
43560;SDS011;32305;46.410;17.394;2023-04-16T05:10:01;1.75;;;1.02;;
43560;SDS011;32305;46.410;17.394;2023-04-16T05:15:31;1.40;;;0.98;;
43560;SDS011;32305;46.410;17.394;2023-04-16T05:17:58;1.55;;;1.15;;
43560;SDS011;32305;46.410;17.394;2023-04-16T05:20:25;1.50;;;1.23;;
43560;SDS011;32305;46.410;17.394;2023-04-16T05:22:53;0.90;;;0.65;;
43560;SDS011;32305;46.410;17.394;2023-04-16T05:28:44;1.10;;;0.98;;
43560;SDS011;32305;46.410;17.394;2023-04-16T05:31:11;1.70;;;1.17;;
43560;SDS011;32305;46.410;17.394;2023-04-16T05:33:38;0.90;;;0.90;;
43560;SDS011;32305;46.410;17.394;2023-04-16T05:36:05;1.38;;;1.00;;
43560;SDS011;32305;46.410;17.394;2023-04-16T05:41:42;0.75;;;0.70;;
43560;SDS011;32305;46.410;17.394;2023-04-16T05:44:09;0.98;;;0.88;;
43560;SDS011;32305;46.410;17.394;2023-04-16T05:46:36;1.20;;;1.10;;
43560;SDS011;32305;46.410;17.394;2023-04-16T05:49:03;1.10;;;1.00;;
43560;SDS011;32305;46.410;17.394;2023-04-16T05:54:54;0.70;;;0.70;;
43560;SDS011;32305;46.410;17.394;2023-04-16T05:57:21;0.73;;;0.70;;
43560;SDS011;32305;46.410;17.394;2023-04-16T05:59:48;0.80;;;0.80;;
43560;SDS011;32305;46.410;17.394;2023-04-16T06:02:15;2.78;;;0.85;;
43560;SDS011;32305;46.410;17.394;2023-04-16T06:07:40;0.90;;;0.90;;
43560;SDS011;32305;46.410;17.394;2023-04-16T06:10:07;1.02;;;0.90;;
43560;SDS011;32305;46.410;17.394;2023-04-16T06:12:35;0.95;;;0.90;;
43560;SDS011;32305;46.410;17.394;2023-04-16T06:15:02;0.93;;;0.88;;
43560;SDS011;32305;46.410;17.394;2023-04-16T06:20:41;1.08;;;0.63;;
43560;SDS011;32305;46.410;17.394;2023-04-16T06:23:08;0.88;;;0.73;;
43560;SDS011;32305;46.410;17.394;2023-04-16T06:25:36;0.88;;;0.88;;
43560;SDS011;32305;46.410;17.394;2023-04-16T06:28:03;1.10;;;0.90;;
43560;SDS011;32305;46.410;17.394;2023-04-16T06:33:41;0.95;;;0.80;;
43560;SDS011;32305;46.410;17.394;2023-04-16T06:36:08;0.68;;;0.68;;
43560;SDS011;32305;46.410;17.394;2023-04-16T06:38:38;0.80;;;0.80;;
43560;SDS011;32305;46.410;17.394;2023-04-16T06:41:05;0.77;;;0.77;;
43560;SDS011;32305;46.410;17.394;2023-04-16T06:46:40;0.85;;;0.70;;
43560;SDS011;32305;46.410;17.394;2023-04-16T06:49:25;0.80;;;0.75;;
43560;SDS011;32305;46.410;17.394;2023-04-16T06:52:04;0.85;;;0.85;;
43560;SDS011;32305;46.410;17.394;2023-04-16T06:54:32;0.93;;;0.80;;
43560;SDS011;32305;46.410;17.394;2023-04-16T07:00:08;0.95;;;0.90;;
43560;SDS011;32305;46.410;17.394;2023-04-16T07:02:36;1.25;;;1.15;;
43560;SDS011;32305;46.410;17.394;2023-04-16T07:05:03;0.80;;;0.60;;
43560;SDS011;32305;46.410;17.394;2023-04-16T07:07:31;1.00;;;0.80;;
43560;SDS011;32305;46.410;17.394;2023-04-16T07:09:58;1.38;;;0.80;;
43560;SDS011;32305;46.410;17.394;2023-04-16T07:12:25;0.85;;;0.45;;
43560;SDS011;32305;46.410;17.394;2023-04-16T07:14:52;0.60;;;0.60;;
43560;SDS011;32305;46.410;17.394;2023-04-16T07:17:19;0.80;;;0.68;;
43560;SDS011;32305;46.410;17.394;2023-04-16T07:19:46;0.90;;;0.68;;
43560;SDS011;32305;46.410;17.394;2023-04-16T07:25:39;0.60;;;0.60;;
43560;SDS011;32305;46.410;17.394;2023-04-16T07:28:07;1.08;;;0.80;;
43560;SDS011;32305;46.410;17.394;2023-04-16T07:30:34;0.77;;;0.70;;
43560;SDS011;32305;46.410;17.394;2023-04-16T07:33:02;0.80;;;0.80;;
43560;SDS011;32305;46.410;17.394;2023-04-16T07:38:39;0.95;;;0.80;;
43560;SDS011;32305;46.410;17.394;2023-04-16T07:41:06;0.98;;;0.70;;
43560;SDS011;32305;46.410;17.394;2023-04-16T07:43:33;4.53;;;0.68;;
43560;SDS011;32305;46.410;17.394;2023-04-16T07:46:01;2.95;;;1.08;;
43560;SDS011;32305;46.410;17.394;2023-04-16T07:52:09;2.78;;;0.70;;
43560;SDS011;32305;46.410;17.394;2023-04-16T07:54:37;2.50;;;0.50;;
43560;SDS011;32305;46.410;17.394;2023-04-16T07:57:04;2.10;;;0.70;;
43560;SDS011;32305;46.410;17.394;2023-04-16T07:59:31;0.63;;;0.63;;
43560;SDS011;32305;46.410;17.394;2023-04-16T08:01:58;0.50;;;0.50;;
43560;SDS011;32305;46.410;17.394;2023-04-16T08:04:26;1.80;;;0.63;;
43560;SDS011;32305;46.410;17.394;2023-04-16T08:06:53;0.40;;;0.40;;
43560;SDS011;32305;46.410;17.394;2023-04-16T08:09:21;0.65;;;0.65;;
43560;SDS011;32305;46.410;17.394;2023-04-16T08:11:51;2.85;;;0.50;;
43560;SDS011;32305;46.410;17.394;2023-04-16T08:14:19;0.60;;;0.40;;
43560;SDS011;32305;46.410;17.394;2023-04-16T08:16:46;1.25;;;0.60;;
43560;SDS011;32305;46.410;17.394;2023-04-16T08:19:13;1.20;;;0.52;;
43560;SDS011;32305;46.410;17.394;2023-04-16T08:24:41;1.27;;;0.60;;
43560;SDS011;32305;46.410;17.394;2023-04-16T08:27:08;0.47;;;0.47;;
43560;SDS011;32305;46.410;17.394;2023-04-16T08:29:45;0.43;;;0.30;;
43560;SDS011;32305;46.410;17.394;2023-04-16T08:32:12;1.50;;;0.70;;
43560;SDS011;32305;46.410;17.394;2023-04-16T08:34:40;0.50;;;0.50;;
43560;SDS011;32305;46.410;17.394;2023-04-16T08:37:07;1.88;;;0.30;;
43560;SDS011;32305;46.410;17.394;2023-04-16T08:39:35;0.30;;;0.30;;
43560;SDS011;32305;46.410;17.394;2023-04-16T08:42:03;3.15;;;0.55;;
43560;SDS011;32305;46.410;17.394;2023-04-16T08:48:12;0.40;;;0.30;;
43560;SDS011;32305;46.410;17.394;2023-04-16T08:50:40;0.63;;;0.60;;
43560;SDS011;32305;46.410;17.394;2023-04-16T08:53:10;1.23;;;0.60;;
43560;SDS011;32305;46.410;17.394;2023-04-16T08:55:47;0.35;;;0.30;;
43560;SDS011;32305;46.410;17.394;2023-04-16T09:01:40;1.85;;;0.60;;
43560;SDS011;32305;46.410;17.394;2023-04-16T09:04:07;0.30;;;0.30;;
43560;SDS011;32305;46.410;17.394;2023-04-16T09:06:35;1.60;;;0.75;;
43560;SDS011;32305;46.410;17.394;2023-04-16T09:09:03;0.50;;;0.50;;
43560;SDS011;32305;46.410;17.394;2023-04-16T09:14:47;0.30;;;0.30;;
43560;SDS011;32305;46.410;17.394;2023-04-16T09:17:16;0.35;;;0.28;;
43560;SDS011;32305;46.410;17.394;2023-04-16T09:19:44;0.80;;;0.68;;
43560;SDS011;32305;46.410;17.394;2023-04-16T09:22:11;0.30;;;0.30;;
43560;SDS011;32305;46.410;17.394;2023-04-16T09:24:39;1.45;;;0.40;;
43560;SDS011;32305;46.410;17.394;2023-04-16T09:27:07;0.22;;;0.20;;
43560;SDS011;32305;46.410;17.394;2023-04-16T09:29:38;0.10;;;0.10;;
43560;SDS011;32305;46.410;17.394;2023-04-16T09:32:07;0.35;;;0.30;;
43560;SDS011;32305;46.410;17.394;2023-04-16T09:40:48;0.50;;;0.50;;
43560;SDS011;32305;46.410;17.394;2023-04-16T09:43:32;0.30;;;0.30;;
43560;SDS011;32305;46.410;17.394;2023-04-16T09:46:00;0.35;;;0.30;;
43560;SDS011;32305;46.410;17.394;2023-04-16T09:48:34;0.38;;;0.38;;
43560;SDS011;32305;46.410;17.394;2023-04-16T09:51:01;0.38;;;0.30;;
43560;SDS011;32305;46.410;17.394;2023-04-16T09:53:32;0.13;;;0.13;;
43560;SDS011;32305;46.410;17.394;2023-04-16T09:56:00;2.00;;;0.30;;
43560;SDS011;32305;46.410;17.394;2023-04-16T09:58:28;1.13;;;0.40;;
43560;SDS011;32305;46.410;17.394;2023-04-16T10:01:03;1.13;;;0.20;;
43560;SDS011;32305;46.410;17.394;2023-04-16T10:03:33;0.30;;;0.30;;
43560;SDS011;32305;46.410;17.394;2023-04-16T10:06:15;0.43;;;0.30;;
43560;SDS011;32305;46.410;17.394;2023-04-16T10:08:48;0.30;;;0.30;;
43560;SDS011;32305;46.410;17.394;2023-04-16T10:11:16;0.20;;;0.20;;
43560;SDS011;32305;46.410;17.394;2023-04-16T10:13:45;0.30;;;0.30;;
43560;SDS011;32305;46.410;17.394;2023-04-16T10:16:12;0.50;;;0.40;;
43560;SDS011;32305;46.410;17.394;2023-04-16T10:18:40;0.17;;;0.17;;
43560;SDS011;32305;46.410;17.394;2023-04-16T10:21:08;1.05;;;0.20;;
43560;SDS011;32305;46.410;17.394;2023-04-16T10:23:38;0.47;;;0.20;;
43560;SDS011;32305;46.410;17.394;2023-04-16T10:26:05;0.20;;;0.20;;
43560;SDS011;32305;46.410;17.394;2023-04-16T10:28:33;0.45;;;0.40;;
43560;SDS011;32305;46.410;17.394;2023-04-16T10:31:04;0.40;;;0.35;;
43560;SDS011;32305;46.410;17.394;2023-04-16T10:33:34;0.10;;;0.10;;
43560;SDS011;32305;46.410;17.394;2023-04-16T10:38:45;0.20;;;0.20;;
43560;SDS011;32305;46.410;17.394;2023-04-16T10:41:14;0.17;;;0.17;;
43560;SDS011;32305;46.410;17.394;2023-04-16T10:43:43;0.20;;;0.20;;
43560;SDS011;32305;46.410;17.394;2023-04-16T10:46:18;0.10;;;0.10;;
43560;SDS011;32305;46.410;17.394;2023-04-16T10:48:51;0.20;;;0.20;;
43560;SDS011;32305;46.410;17.394;2023-04-16T10:51:33;0.20;;;0.20;;
43560;SDS011;32305;46.410;17.394;2023-04-16T10:57:02;0.30;;;0.30;;
43560;SDS011;32305;46.410;17.394;2023-04-16T10:59:32;0.30;;;0.30;;
43560;SDS011;32305;46.410;17.394;2023-04-16T11:02:12;0.43;;;0.22;;
43560;SDS011;32305;46.410;17.394;2023-04-16T11:07:14;0.30;;;0.20;;
43560;SDS011;32305;46.410;17.394;2023-04-16T11:09:45;0.20;;;0.20;;
43560;SDS011;32305;46.410;17.394;2023-04-16T11:12:22;0.40;;;0.40;;
43560;SDS011;32305;46.410;17.394;2023-04-16T11:14:53;0.30;;;0.30;;
43560;SDS011;32305;46.410;17.394;2023-04-16T11:17:36;0.20;;;0.20;;
43560;SDS011;32305;46.410;17.394;2023-04-16T11:20:20;0.20;;;0.20;;
43560;SDS011;32305;46.410;17.394;2023-04-16T11:22:49;0.30;;;0.30;;
43560;SDS011;32305;46.410;17.394;2023-04-16T11:25:18;0.10;;;0.10;;
43560;SDS011;32305;46.410;17.394;2023-04-16T11:27:51;0.10;;;0.10;;
43560;SDS011;32305;46.410;17.394;2023-04-16T11:30:29;0.50;;;0.20;;
43560;SDS011;32305;46.410;17.394;2023-04-16T11:33:02;0.47;;;0.22;;
43560;SDS011;32305;46.410;17.394;2023-04-16T11:35:37;0.28;;;0.20;;
43560;SDS011;32305;46.410;17.394;2023-04-16T11:38:05;0.15;;;0.15;;
43560;SDS011;32305;46.410;17.394;2023-04-16T11:40:33;0.30;;;0.30;;
43560;SDS011;32305;46.410;17.394;2023-04-16T11:43:03;0.28;;;0.28;;
43560;SDS011;32305;46.410;17.394;2023-04-16T11:45:40;0.30;;;0.30;;
43560;SDS011;32305;46.410;17.394;2023-04-16T11:48:21;0.45;;;0.45;;
43560;SDS011;32305;46.410;17.394;2023-04-16T11:50:55;0.20;;;0.20;;
43560;SDS011;32305;46.410;17.394;2023-04-16T11:53:23;0.68;;;0.20;;
43560;SDS011;32305;46.410;17.394;2023-04-16T11:55:50;0.20;;;0.20;;
43560;SDS011;32305;46.410;17.394;2023-04-16T11:58:17;0.43;;;0.15;;
43560;SDS011;32305;46.410;17.394;2023-04-16T12:00:47;0.25;;;0.25;;
43560;SDS011;32305;46.410;17.394;2023-04-16T12:03:15;0.28;;;0.20;;
43560;SDS011;32305;46.410;17.394;2023-04-16T12:05:42;0.30;;;0.30;;
43560;SDS011;32305;46.410;17.394;2023-04-16T12:08:10;0.20;;;0.20;;
43560;SDS011;32305;46.410;17.394;2023-04-16T12:10:54;0.40;;;0.40;;
43560;SDS011;32305;46.410;17.394;2023-04-16T12:13:25;0.20;;;0.20;;
43560;SDS011;32305;46.410;17.394;2023-04-16T12:15:52;0.25;;;0.20;;
43560;SDS011;32305;46.410;17.394;2023-04-16T12:18:22;0.27;;;0.27;;
43560;SDS011;32305;46.410;17.394;2023-04-16T12:20:52;0.30;;;0.20;;
43560;SDS011;32305;46.410;17.394;2023-04-16T12:23:23;0.20;;;0.20;;
43560;SDS011;32305;46.410;17.394;2023-04-16T12:25:51;0.60;;;0.20;;
43560;SDS011;32305;46.410;17.394;2023-04-16T12:28:26;0.22;;;0.22;;
43560;SDS011;32305;46.410;17.394;2023-04-16T12:31:03;0.20;;;0.20;;
43560;SDS011;32305;46.410;17.394;2023-04-16T12:33:31;0.30;;;0.30;;
43560;SDS011;32305;46.410;17.394;2023-04-16T12:35:58;0.40;;;0.30;;
43560;SDS011;32305;46.410;17.394;2023-04-16T12:38:26;0.35;;;0.35;;
43560;SDS011;32305;46.410;17.394;2023-04-16T12:40:53;0.30;;;0.30;;
43560;SDS011;32305;46.410;17.394;2023-04-16T12:43:23;0.30;;;0.30;;
43560;SDS011;32305;46.410;17.394;2023-04-16T12:45:51;1.27;;;0.52;;
43560;SDS011;32305;46.410;17.394;2023-04-16T12:48:18;0.45;;;0.25;;
43560;SDS011;32305;46.410;17.394;2023-04-16T12:50:45;0.30;;;0.30;;
43560;SDS011;32305;46.410;17.394;2023-04-16T12:53:12;0.30;;;0.30;;
43560;SDS011;32305;46.410;17.394;2023-04-16T12:55:40;0.25;;;0.25;;
43560;SDS011;32305;46.410;17.394;2023-04-16T12:58:07;0.32;;;0.30;;
43560;SDS011;32305;46.410;17.394;2023-04-16T13:03:05;0.25;;;0.25;;
43560;SDS011;32305;46.410;17.394;2023-04-16T13:05:32;0.40;;;0.30;;
43560;SDS011;32305;46.410;17.394;2023-04-16T13:08:00;0.40;;;0.40;;
43560;SDS011;32305;46.410;17.394;2023-04-16T13:10:27;0.22;;;0.22;;
43560;SDS011;32305;46.410;17.394;2023-04-16T13:12:55;0.45;;;0.40;;
43560;SDS011;32305;46.410;17.394;2023-04-16T13:15:22;0.52;;;0.30;;
43560;SDS011;32305;46.410;17.394;2023-04-16T13:17:49;0.60;;;0.60;;
43560;SDS011;32305;46.410;17.394;2023-04-16T13:20:17;0.50;;;0.40;;
43560;SDS011;32305;46.410;17.394;2023-04-16T13:22:44;0.35;;;0.30;;
43560;SDS011;32305;46.410;17.394;2023-04-16T13:25:11;0.32;;;0.30;;
43560;SDS011;32305;46.410;17.394;2023-04-16T13:27:38;0.30;;;0.30;;
43560;SDS011;32305;46.410;17.394;2023-04-16T13:30:05;0.30;;;0.30;;
43560;SDS011;32305;46.410;17.394;2023-04-16T13:32:33;0.38;;;0.30;;
43560;SDS011;32305;46.410;17.394;2023-04-16T13:35:00;0.30;;;0.30;;
43560;SDS011;32305;46.410;17.394;2023-04-16T13:37:27;0.40;;;0.35;;
43560;SDS011;32305;46.410;17.394;2023-04-16T13:39:54;0.30;;;0.22;;
43560;SDS011;32305;46.410;17.394;2023-04-16T13:42:21;0.65;;;0.52;;
43560;SDS011;32305;46.410;17.394;2023-04-16T13:44:49;0.50;;;0.50;;
43560;SDS011;32305;46.410;17.394;2023-04-16T13:47:19;0.70;;;0.50;;
43560;SDS011;32305;46.410;17.394;2023-04-16T13:49:46;0.47;;;0.47;;
43560;SDS011;32305;46.410;17.394;2023-04-16T13:52:13;1.55;;;0.40;;
43560;SDS011;32305;46.410;17.394;2023-04-16T13:54:40;0.28;;;0.20;;
43560;SDS011;32305;46.410;17.394;2023-04-16T13:57:09;0.50;;;0.50;;
43560;SDS011;32305;46.410;17.394;2023-04-16T13:59:36;0.50;;;0.40;;
43560;SDS011;32305;46.410;17.394;2023-04-16T14:02:03;0.85;;;0.50;;
43560;SDS011;32305;46.410;17.394;2023-04-16T14:04:31;0.50;;;0.50;;
43560;SDS011;32305;46.410;17.394;2023-04-16T14:06:58;0.28;;;0.28;;
43560;SDS011;32305;46.410;17.394;2023-04-16T14:09:26;0.40;;;0.40;;
43560;SDS011;32305;46.410;17.394;2023-04-16T14:11:53;0.50;;;0.50;;
43560;SDS011;32305;46.410;17.394;2023-04-16T14:14:21;0.47;;;0.30;;
43560;SDS011;32305;46.410;17.394;2023-04-16T14:16:48;0.73;;;0.40;;
43560;SDS011;32305;46.410;17.394;2023-04-16T14:19:15;0.45;;;0.45;;
43560;SDS011;32305;46.410;17.394;2023-04-16T14:21:43;0.40;;;0.40;;
43560;SDS011;32305;46.410;17.394;2023-04-16T14:24:10;0.40;;;0.40;;
43560;SDS011;32305;46.410;17.394;2023-04-16T14:26:37;0.30;;;0.30;;
43560;SDS011;32305;46.410;17.394;2023-04-16T14:29:04;0.35;;;0.30;;
43560;SDS011;32305;46.410;17.394;2023-04-16T14:31:31;0.35;;;0.35;;
43560;SDS011;32305;46.410;17.394;2023-04-16T14:33:58;0.50;;;0.40;;
43560;SDS011;32305;46.410;17.394;2023-04-16T14:36:26;1.75;;;0.20;;
43560;SDS011;32305;46.410;17.394;2023-04-16T14:38:53;0.40;;;0.38;;
43560;SDS011;32305;46.410;17.394;2023-04-16T14:41:20;1.60;;;0.50;;
43560;SDS011;32305;46.410;17.394;2023-04-16T14:43:47;0.30;;;0.30;;
43560;SDS011;32305;46.410;17.394;2023-04-16T14:46:14;0.45;;;0.30;;
43560;SDS011;32305;46.410;17.394;2023-04-16T14:48:43;0.30;;;0.30;;
43560;SDS011;32305;46.410;17.394;2023-04-16T14:51:11;0.30;;;0.30;;
43560;SDS011;32305;46.410;17.394;2023-04-16T14:53:38;0.10;;;0.10;;
43560;SDS011;32305;46.410;17.394;2023-04-16T14:56:05;0.25;;;0.25;;
43560;SDS011;32305;46.410;17.394;2023-04-16T14:58:33;0.30;;;0.30;;
43560;SDS011;32305;46.410;17.394;2023-04-16T15:01:04;0.40;;;0.40;;
43560;SDS011;32305;46.410;17.394;2023-04-16T15:03:31;1.02;;;0.50;;
43560;SDS011;32305;46.410;17.394;2023-04-16T15:06:01;0.50;;;0.50;;
43560;SDS011;32305;46.410;17.394;2023-04-16T15:08:28;0.20;;;0.20;;
43560;SDS011;32305;46.410;17.394;2023-04-16T15:10:55;0.40;;;0.40;;
43560;SDS011;32305;46.410;17.394;2023-04-16T15:13:22;0.22;;;0.22;;
43560;SDS011;32305;46.410;17.394;2023-04-16T15:15:49;0.25;;;0.25;;
43560;SDS011;32305;46.410;17.394;2023-04-16T15:18:16;0.30;;;0.30;;
43560;SDS011;32305;46.410;17.394;2023-04-16T15:20:44;0.45;;;0.40;;
43560;SDS011;32305;46.410;17.394;2023-04-16T15:23:11;0.30;;;0.30;;
43560;SDS011;32305;46.410;17.394;2023-04-16T15:25:38;0.50;;;0.50;;
43560;SDS011;32305;46.410;17.394;2023-04-16T15:28:05;0.32;;;0.32;;
43560;SDS011;32305;46.410;17.394;2023-04-16T15:30:32;0.80;;;0.30;;
43560;SDS011;32305;46.410;17.394;2023-04-16T15:33:00;0.43;;;0.30;;
43560;SDS011;32305;46.410;17.394;2023-04-16T15:35:27;0.38;;;0.38;;
43560;SDS011;32305;46.410;17.394;2023-04-16T15:37:54;0.50;;;0.50;;
43560;SDS011;32305;46.410;17.394;2023-04-16T15:40:21;0.40;;;0.22;;
43560;SDS011;32305;46.410;17.394;2023-04-16T15:42:50;0.40;;;0.38;;
43560;SDS011;32305;46.410;17.394;2023-04-16T15:45:17;0.40;;;0.40;;
43560;SDS011;32305;46.410;17.394;2023-04-16T15:50:17;0.28;;;0.20;;
43560;SDS011;32305;46.410;17.394;2023-04-16T15:52:45;0.80;;;0.30;;
43560;SDS011;32305;46.410;17.394;2023-04-16T15:55:13;0.40;;;0.40;;
43560;SDS011;32305;46.410;17.394;2023-04-16T15:57:40;0.45;;;0.30;;
43560;SDS011;32305;46.410;17.394;2023-04-16T16:00:08;0.40;;;0.32;;
43560;SDS011;32305;46.410;17.394;2023-04-16T16:02:39;0.32;;;0.32;;
43560;SDS011;32305;46.410;17.394;2023-04-16T16:05:08;0.30;;;0.30;;
43560;SDS011;32305;46.410;17.394;2023-04-16T16:07:36;0.20;;;0.20;;
43560;SDS011;32305;46.410;17.394;2023-04-16T16:10:03;0.30;;;0.30;;
43560;SDS011;32305;46.410;17.394;2023-04-16T16:12:31;0.40;;;0.30;;
43560;SDS011;32305;46.410;17.394;2023-04-16T16:14:58;0.20;;;0.20;;
43560;SDS011;32305;46.410;17.394;2023-04-16T16:17:30;1.10;;;0.20;;
43560;SDS011;32305;46.410;17.394;2023-04-16T16:19:57;0.30;;;0.30;;
43560;SDS011;32305;46.410;17.394;2023-04-16T16:22:25;0.32;;;0.30;;
43560;SDS011;32305;46.410;17.394;2023-04-16T16:24:53;0.38;;;0.30;;
43560;SDS011;32305;46.410;17.394;2023-04-16T16:27:21;0.80;;;0.50;;
43560;SDS011;32305;46.410;17.394;2023-04-16T16:29:49;0.40;;;0.30;;
43560;SDS011;32305;46.410;17.394;2023-04-16T16:32:16;0.57;;;0.47;;
43560;SDS011;32305;46.410;17.394;2023-04-16T16:34:43;0.30;;;0.30;;
43560;SDS011;32305;46.410;17.394;2023-04-16T16:37:10;0.30;;;0.30;;
43560;SDS011;32305;46.410;17.394;2023-04-16T16:39:38;0.25;;;0.25;;
43560;SDS011;32305;46.410;17.394;2023-04-16T16:42:05;0.43;;;0.43;;
43560;SDS011;32305;46.410;17.394;2023-04-16T16:44:35;0.57;;;0.20;;
43560;SDS011;32305;46.410;17.394;2023-04-16T16:47:02;0.30;;;0.30;;
43560;SDS011;32305;46.410;17.394;2023-04-16T16:49:29;0.20;;;0.20;;
43560;SDS011;32305;46.410;17.394;2023-04-16T16:51:56;0.20;;;0.20;;